Time;durP1;ratioP1;P1;durP2;ratioP2;P2;SDS_P1;SDS_P2;PMS_P1;PMS_P2;Temp;Humidity;BMP_temperature;BMP_pressure;BME280_temperature;BME280_humidity;BME280_pressure;Samples;Min_cycle;Max_cycle;Signal;HPM_P1;HPM_P2
2024/01/21 00:02:12;;;;;;;10.02;6.43;;;;;;;;;;5016661;28;20066;-80
2024/01/21 00:04:38;;;;;;;12.27;6.40;;;;;;;;;;5017008;28;20042;-80
2024/01/21 00:07:04;;;;;;;9.40;4.95;;;;;;;;;;4995833;28;20046;-80
2024/01/21 00:09:30;;;;;;;12.18;5.75;;;;;;;;;;4993257;28;20038;-80
2024/01/21 00:11:56;;;;;;;12.00;6.30;;;;;;;;;;5005134;28;20046;-80
2024/01/21 00:14:22;;;;;;;10.13;5.30;;;;;;;;;;5025325;28;20045;-80
2024/01/21 00:16:48;;;;;;;9.60;5.70;;;;;;;;;;4993957;28;20046;-80
2024/01/21 00:19:14;;;;;;;11.63;5.40;;;;;;;;;;4986290;28;20042;-80
2024/01/21 00:21:40;;;;;;;11.35;6.32;;;;;;;;;;4995576;28;20054;-79
2024/01/21 00:24:06;;;;;;;9.52;5.90;;;;;;;;;;4999516;28;20393;-80
2024/01/21 00:26:32;;;;;;;10.70;6.20;;;;;;;;;;5004489;28;20041;-80
2024/01/21 00:29:00;;;;;;;9.65;5.53;;;;;;;;;;5003226;28;20404;-80
2024/01/21 00:31:27;;;;;;;10.00;5.20;;;;;;;;;;5019465;28;20515;-79
2024/01/21 00:33:53;;;;;;;9.52;6.18;;;;;;;;;;5025955;28;20042;-80
2024/01/21 00:36:19;;;;;;;8.50;5.50;;;;;;;;;;5004931;28;20054;-80
2024/01/21 00:38:45;;;;;;;10.25;5.05;;;;;;;;;;4983740;28;20105;-80
2024/01/21 00:41:15;;;;;;;10.60;5.40;;;;;;;;;;5023770;28;20044;-80
2024/01/21 00:43:41;;;;;;;12.48;5.57;;;;;;;;;;5022406;28;20042;-80
2024/01/21 00:46:07;;;;;;;8.02;5.25;;;;;;;;;;5025864;28;20120;-80
2024/01/21 00:48:34;;;;;;;7.68;5.13;;;;;;;;;;5015861;28;20057;-80
2024/01/21 00:51:00;;;;;;;8.57;5.43;;;;;;;;;;5022298;28;20447;-80
2024/01/21 00:53:26;;;;;;;8.70;5.88;;;;;;;;;;5022590;28;20416;-80
2024/01/21 00:55:52;;;;;;;7.45;4.57;;;;;;;;;;5003945;28;20118;-80
2024/01/21 00:58:18;;;;;;;9.43;5.18;;;;;;;;;;5005795;28;20034;-80
2024/01/21 01:00:44;;;;;;;10.48;5.60;;;;;;;;;;5004997;28;20038;-80
2024/01/21 01:03:10;;;;;;;9.65;4.80;;;;;;;;;;4996048;28;20145;-80
2024/01/21 01:05:36;;;;;;;5.80;3.92;;;;;;;;;;5001533;28;20563;-80
2024/01/21 01:08:02;;;;;;;8.73;4.50;;;;;;;;;;5020373;28;20038;-80
2024/01/21 01:10:28;;;;;;;7.95;4.50;;;;;;;;;;5017265;28;20037;-80
2024/01/21 01:12:55;;;;;;;7.88;3.85;;;;;;;;;;5005699;28;20192;-80
2024/01/21 01:15:21;;;;;;;7.47;4.28;;;;;;;;;;5020615;28;20045;-80
2024/01/21 01:17:47;;;;;;;7.15;4.82;;;;;;;;;;5007738;28;20045;-80
2024/01/21 01:20:14;;;;;;;7.07;4.47;;;;;;;;;;4999440;28;20126;-80
2024/01/21 01:22:40;;;;;;;9.38;5.10;;;;;;;;;;5001996;28;20042;-80
2024/01/21 01:25:06;;;;;;;7.25;4.75;;;;;;;;;;4984928;28;20049;-80
2024/01/21 01:27:32;;;;;;;10.23;4.97;;;;;;;;;;4992420;28;20092;-80
2024/01/21 01:29:58;;;;;;;8.40;3.85;;;;;;;;;;5003548;28;20038;-80
2024/01/21 01:32:24;;;;;;;9.32;5.32;;;;;;;;;;4997144;28;20063;-80
2024/01/21 01:34:52;;;;;;;6.82;3.83;;;;;;;;;;4996519;28;20096;-80
2024/01/21 01:37:18;;;;;;;7.82;4.45;;;;;;;;;;5021390;28;20428;-80
2024/01/21 01:39:44;;;;;;;6.28;4.28;;;;;;;;;;5012716;28;20429;-80
2024/01/21 01:42:10;;;;;;;8.15;4.00;;;;;;;;;;5017798;28;20037;-80
2024/01/21 01:44:40;;;;;;;8.10;3.78;;;;;;;;;;5020371;28;20048;-80
2024/01/21 01:47:07;;;;;;;8.82;4.30;;;;;;;;;;5015073;28;20048;-80
2024/01/21 01:49:33;;;;;;;6.97;4.10;;;;;;;;;;5010223;28;20069;-80
2024/01/21 01:51:59;;;;;;;6.85;3.47;;;;;;;;;;5017846;28;20108;-80
2024/01/21 01:54:26;;;;;;;7.65;4.18;;;;;;;;;;5021903;28;20492;-80
2024/01/21 01:56:52;;;;;;;5.80;3.83;;;;;;;;;;4991625;28;20088;-80
2024/01/21 01:59:19;;;;;;;5.72;3.22;;;;;;;;;;5020727;28;20029;-80
2024/01/21 02:01:45;;;;;;;7.82;3.15;;;;;;;;;;5024956;28;20049;-80
2024/01/21 02:04:11;;;;;;;4.65;3.15;;;;;;;;;;4983214;28;20041;-80
2024/01/21 02:06:38;;;;;;;6.30;3.30;;;;;;;;;;5004022;28;20042;-80
2024/01/21 02:09:05;;;;;;;5.55;2.85;;;;;;;;;;4995034;28;20065;-80
2024/01/21 02:11:31;;;;;;;6.47;3.75;;;;;;;;;;4993696;28;20043;-80
2024/01/21 02:13:57;;;;;;;4.93;2.63;;;;;;;;;;4990187;28;20091;-80
2024/01/21 02:16:23;;;;;;;5.35;2.97;;;;;;;;;;5002454;28;20073;-80
2024/01/21 02:18:50;;;;;;;3.65;2.97;;;;;;;;;;5014667;28;20374;-80
2024/01/21 02:21:16;;;;;;;6.85;3.50;;;;;;;;;;5003356;28;21758;-80
2024/01/21 02:23:43;;;;;;;3.78;2.22;;;;;;;;;;5025583;28;20038;-80
2024/01/21 02:26:09;;;;;;;4.05;2.67;;;;;;;;;;5020065;28;20092;-80
2024/01/21 02:28:35;;;;;;;5.60;2.78;;;;;;;;;;4992218;28;20581;-80
2024/01/21 02:31:01;;;;;;;5.10;2.60;;;;;;;;;;5005155;28;20076;-80
2024/01/21 02:33:27;;;;;;;3.55;2.38;;;;;;;;;;5012349;28;20072;-80
2024/01/21 02:35:53;;;;;;;4.43;2.45;;;;;;;;;;5008086;28;20041;-80
2024/01/21 02:38:19;;;;;;;5.43;2.47;;;;;;;;;;5015729;28;20057;-80
2024/01/21 02:40:45;;;;;;;3.55;1.95;;;;;;;;;;5023884;28;20045;-80
2024/01/21 02:43:11;;;;;;;3.10;2.45;;;;;;;;;;5021181;28;20045;-80
2024/01/21 02:45:37;;;;;;;5.70;2.60;;;;;;;;;;5002122;28;20049;-80
2024/01/21 02:48:03;;;;;;;3.38;1.90;;;;;;;;;;5013015;28;20038;-80
2024/01/21 02:50:29;;;;;;;5.28;2.72;;;;;;;;;;5021741;28;20033;-81
2024/01/21 02:52:55;;;;;;;2.75;1.95;;;;;;;;;;5025095;28;20071;-80
2024/01/21 02:55:21;;;;;;;4.50;2.10;;;;;;;;;;5023495;28;20048;-80
2024/01/21 02:57:47;;;;;;;3.10;2.22;;;;;;;;;;5020360;28;20046;-80
2024/01/21 03:00:14;;;;;;;3.50;2.17;;;;;;;;;;5006880;28;20044;-80
2024/01/21 03:02:40;;;;;;;2.05;1.52;;;;;;;;;;5018567;28;20046;-81
2024/01/21 03:05:06;;;;;;;4.20;2.45;;;;;;;;;;5025273;28;20037;-80
2024/01/21 03:07:32;;;;;;;3.08;2.10;;;;;;;;;;5002635;28;20049;-80
2024/01/21 03:09:58;;;;;;;5.25;1.58;;;;;;;;;;5016684;28;20476;-80
2024/01/21 03:12:24;;;;;;;4.00;1.63;;;;;;;;;;5004685;28;20045;-80
2024/01/21 03:14:50;;;;;;;2.60;1.83;;;;;;;;;;5022212;28;20408;-80
2024/01/21 03:17:16;;;;;;;3.70;1.98;;;;;;;;;;5002024;28;20038;-80
2024/01/21 03:19:42;;;;;;;3.15;2.05;;;;;;;;;;5018959;28;20512;-80
2024/01/21 03:22:08;;;;;;;3.15;1.40;;;;;;;;;;5021538;28;20053;-80
2024/01/21 03:24:34;;;;;;;3.42;1.75;;;;;;;;;;5024961;28;20689;-80
2024/01/21 03:27:00;;;;;;;1.98;1.38;;;;;;;;;;5000404;28;20038;-80
2024/01/21 03:29:26;;;;;;;2.03;1.20;;;;;;;;;;5022696;28;20038;-80
2024/01/21 03:31:52;;;;;;;2.33;1.52;;;;;;;;;;5014696;28;20187;-80
2024/01/21 03:34:18;;;;;;;1.52;1.42;;;;;;;;;;5010257;28;20045;-79
2024/01/21 03:36:44;;;;;;;1.83;1.45;;;;;;;;;;5015166;28;20053;-80
2024/01/21 03:39:10;;;;;;;2.47;1.45;;;;;;;;;;5000436;28;21434;-80
2024/01/21 03:41:36;;;;;;;3.45;1.35;;;;;;;;;;5006620;28;20058;-80
2024/01/21 03:44:02;;;;;;;3.97;1.92;;;;;;;;;;4999803;28;20070;-80
2024/01/21 03:46:28;;;;;;;2.35;1.42;;;;;;;;;;5005345;28;20572;-80
2024/01/21 03:48:54;;;;;;;1.77;1.25;;;;;;;;;;5000242;28;20085;-80
2024/01/21 03:51:20;;;;;;;2.53;1.40;;;;;;;;;;5010923;28;20417;-80
2024/01/21 03:53:46;;;;;;;2.15;1.33;;;;;;;;;;5015918;28;20057;-80
2024/01/21 03:56:18;;;;;;;1.50;1.15;;;;;;;;;;5016099;28;20528;-80
2024/01/21 03:58:45;;;;;;;2.38;1.48;;;;;;;;;;5002658;28;20432;-80
2024/01/21 04:01:11;;;;;;;2.63;1.15;;;;;;;;;;5009419;28;20113;-80
2024/01/21 04:03:37;;;;;;;4.63;1.50;;;;;;;;;;5017784;28;20038;-80
2024/01/21 04:06:03;;;;;;;2.63;1.13;;;;;;;;;;5020890;28;20128;-80
2024/01/21 04:08:29;;;;;;;2.15;1.08;;;;;;;;;;5019337;28;20465;-80
2024/01/21 04:10:55;;;;;;;1.52;1.08;;;;;;;;;;5005162;28;20156;-80
2024/01/21 04:13:21;;;;;;;3.25;1.40;;;;;;;;;;5008389;28;20057;-80
2024/01/21 04:15:48;;;;;;;2.70;1.35;;;;;;;;;;5001289;28;20299;-80
2024/01/21 04:18:14;;;;;;;2.65;1.35;;;;;;;;;;5020338;28;20033;-80
2024/01/21 04:20:40;;;;;;;1.63;1.00;;;;;;;;;;4988239;28;20037;-80
2024/01/21 04:23:06;;;;;;;2.83;1.25;;;;;;;;;;5009020;28;20069;-80
2024/01/21 04:25:32;;;;;;;4.10;1.67;;;;;;;;;;5009861;28;20073;-79
2024/01/21 04:27:58;;;;;;;2.67;1.50;;;;;;;;;;5001377;28;20507;-80
2024/01/21 04:30:24;;;;;;;2.38;1.20;;;;;;;;;;5025362;28;20109;-80
2024/01/21 04:32:50;;;;;;;3.47;1.30;;;;;;;;;;5028773;28;20073;-80
2024/01/21 04:35:16;;;;;;;2.00;1.23;;;;;;;;;;5007678;28;20053;-80
2024/01/21 04:37:42;;;;;;;1.63;0.98;;;;;;;;;;5026424;28;20464;-80
2024/01/21 04:40:08;;;;;;;1.38;0.85;;;;;;;;;;5011924;28;20049;-80
2024/01/21 04:42:34;;;;;;;3.00;1.27;;;;;;;;;;5022513;28;20049;-80
2024/01/21 04:45:00;;;;;;;1.58;0.82;;;;;;;;;;4988592;28;20050;-80
2024/01/21 04:47:26;;;;;;;1.30;0.90;;;;;;;;;;5013086;28;20445;-79
2024/01/21 04:49:52;;;;;;;4.22;1.13;;;;;;;;;;5022100;28;20073;-79
2024/01/21 04:52:18;;;;;;;1.40;0.73;;;;;;;;;;5016335;28;20049;-79
2024/01/21 04:54:44;;;;;;;2.75;1.42;;;;;;;;;;4999725;28;20044;-80
2024/01/21 04:57:10;;;;;;;1.15;0.80;;;;;;;;;;5009337;28;20096;-80
2024/01/21 04:59:36;;;;;;;1.65;0.90;;;;;;;;;;5000689;28;20087;-80
2024/01/21 05:02:02;;;;;;;1.45;0.88;;;;;;;;;;5022248;28;20556;-80
2024/01/21 05:04:28;;;;;;;3.05;1.40;;;;;;;;;;5005446;28;20038;-80
2024/01/21 05:06:54;;;;;;;2.38;1.10;;;;;;;;;;5006151;28;20056;-80
2024/01/21 05:09:20;;;;;;;1.92;0.77;;;;;;;;;;4989868;28;20128;-80
2024/01/21 05:11:45;;;;;;;3.08;1.25;;;;;;;;;;4998047;28;20045;-80
2024/01/21 05:14:11;;;;;;;2.08;1.10;;;;;;;;;;4997605;28;20042;-80
2024/01/21 05:16:41;;;;;;;2.63;1.35;;;;;;;;;;5008915;28;20393;-80
2024/01/21 05:19:07;;;;;;;2.25;1.00;;;;;;;;;;5007909;28;20053;-80
2024/01/21 05:21:33;;;;;;;1.77;1.00;;;;;;;;;;4991006;28;20080;-80
2024/01/21 05:23:59;;;;;;;2.47;1.73;;;;;;;;;;5006561;28;20404;-80
2024/01/21 05:26:25;;;;;;;2.10;1.30;;;;;;;;;;5023715;28;20037;-79
2024/01/21 05:28:53;;;;;;;3.40;1.70;;;;;;;;;;5019931;28;20057;-80
2024/01/21 05:31:20;;;;;;;1.75;1.30;;;;;;;;;;5024152;28;20041;-80
2024/01/21 05:33:46;;;;;;;2.47;1.30;;;;;;;;;;5024186;28;20053;-80
2024/01/21 05:36:13;;;;;;;2.83;1.50;;;;;;;;;;5011226;28;20133;-80
2024/01/21 05:38:39;;;;;;;2.70;1.48;;;;;;;;;;4994916;28;20051;-80
2024/01/21 05:41:05;;;;;;;2.88;1.33;;;;;;;;;;5001014;28;20046;-80
2024/01/21 05:43:31;;;;;;;4.05;1.67;;;;;;;;;;4982856;28;20035;-80
2024/01/21 05:45:57;;;;;;;1.95;1.38;;;;;;;;;;5002024;28;20045;-81
2024/01/21 05:48:23;;;;;;;1.90;1.08;;;;;;;;;;5001572;28;20388;-80
2024/01/21 05:50:49;;;;;;;1.65;1.25;;;;;;;;;;5022203;28;20053;-80
2024/01/21 05:53:15;;;;;;;3.58;0.88;;;;;;;;;;5010569;28;20048;-80
2024/01/21 05:55:41;;;;;;;2.35;1.67;;;;;;;;;;5004377;28;20042;-80
2024/01/21 05:58:07;;;;;;;2.65;1.63;;;;;;;;;;5019567;28;20398;-80
2024/01/21 06:00:33;;;;;;;2.13;1.80;;;;;;;;;;5024272;28;20045;-80
2024/01/21 06:02:59;;;;;;;5.90;1.92;;;;;;;;;;5019107;28;20045;-79
2024/01/21 06:05:25;;;;;;;3.97;2.45;;;;;;;;;;5022101;28;20111;-80
2024/01/21 06:07:51;;;;;;;3.45;2.17;;;;;;;;;;5006730;28;20045;-80
2024/01/21 06:10:17;;;;;;;4.38;1.90;;;;;;;;;;5016583;28;20056;-80
2024/01/21 06:12:43;;;;;;;4.03;2.15;;;;;;;;;;5016922;28;20400;-80
2024/01/21 06:15:11;;;;;;;3.03;1.98;;;;;;;;;;5019481;28;20041;-80
2024/01/21 06:17:37;;;;;;;2.92;1.50;;;;;;;;;;5005641;28;20054;-80
2024/01/21 06:20:03;;;;;;;4.10;1.55;;;;;;;;;;5006496;28;20132;-81
2024/01/21 06:22:29;;;;;;;2.92;1.67;;;;;;;;;;4999783;28;20104;-80
2024/01/21 06:24:55;;;;;;;2.92;1.65;;;;;;;;;;5010617;28;20033;-80
2024/01/21 06:27:21;;;;;;;3.08;2.10;;;;;;;;;;5001257;28;20092;-81
2024/01/21 06:29:47;;;;;;;3.40;2.15;;;;;;;;;;4991843;28;20073;-81
2024/01/21 06:32:13;;;;;;;6.05;2.72;;;;;;;;;;5001331;28;20096;-80
2024/01/21 06:34:39;;;;;;;3.83;1.85;;;;;;;;;;5023196;28;20037;-80
2024/01/21 06:37:05;;;;;;;3.50;2.42;;;;;;;;;;5019906;28;20398;-84
2024/01/21 06:39:31;;;;;;;3.80;2.67;;;;;;;;;;5008453;28;20048;-83
2024/01/21 06:41:57;;;;;;;4.78;2.05;;;;;;;;;;4990215;28;20509;-83
2024/01/21 06:44:23;;;;;;;2.85;2.20;;;;;;;;;;4996961;28;20118;-80
2024/01/21 06:46:49;;;;;;;4.28;1.67;;;;;;;;;;5006074;28;20476;-81
2024/01/21 06:49:15;;;;;;;4.75;2.65;;;;;;;;;;5016463;28;20038;-80
2024/01/21 06:51:53;;;;;;;5.03;3.13;;;;;;;;;;4985141;28;20117;-83
2024/01/21 06:54:19;;;;;;;4.03;2.42;;;;;;;;;;5001146;28;20045;-82
2024/01/21 06:56:45;;;;;;;4.93;2.65;;;;;;;;;;5013554;28;20050;-82
2024/01/21 06:59:11;;;;;;;4.85;1.95;;;;;;;;;;4997492;28;20084;-80
2024/01/21 07:01:37;;;;;;;4.43;2.67;;;;;;;;;;5004520;28;20050;-81
2024/01/21 07:04:03;;;;;;;4.75;3.10;;;;;;;;;;5000852;28;20044;-82
2024/01/21 07:06:29;;;;;;;9.02;3.33;;;;;;;;;;5005763;28;20125;-82
2024/01/21 07:08:55;;;;;;;5.13;3.47;;;;;;;;;;5001906;28;20437;-81
2024/01/21 07:11:22;;;;;;;5.32;2.80;;;;;;;;;;5022832;28;20037;-81
2024/01/21 07:13:48;;;;;;;4.10;2.38;;;;;;;;;;4988897;28;20038;-82
2024/01/21 07:16:14;;;;;;;3.38;2.50;;;;;;;;;;5005027;28;20044;-82
2024/01/21 07:18:40;;;;;;;5.05;3.15;;;;;;;;;;5007055;28;20095;-82
2024/01/21 07:21:06;;;;;;;2.25;1.92;;;;;;;;;;5000352;28;20570;-81
2024/01/21 07:23:31;;;;;;;4.88;3.15;;;;;;;;;;4987860;28;20045;-82
2024/01/21 07:25:58;;;;;;;6.25;3.50;;;;;;;;;;5030469;28;20042;-81
2024/01/21 07:28:24;;;;;;;3.30;2.05;;;;;;;;;;5025512;28;20061;-82
2024/01/21 07:30:50;;;;;;;5.35;3.17;;;;;;;;;;4998331;28;20077;-81
2024/01/21 07:33:15;;;;;;;6.45;3.75;;;;;;;;;;5008665;28;20048;-81
2024/01/21 07:35:42;;;;;;;4.50;2.35;;;;;;;;;;4984774;28;20093;-80
2024/01/21 07:38:09;;;;;;;5.97;3.13;;;;;;;;;;5000676;28;20057;-81
2024/01/21 07:40:35;;;;;;;8.60;4.18;;;;;;;;;;4995518;28;20398;-80
2024/01/21 07:43:01;;;;;;;5.03;3.03;;;;;;;;;;4995426;28;20049;-80
2024/01/21 07:45:27;;;;;;;5.25;3.45;;;;;;;;;;4993975;28;20037;-80
2024/01/21 07:47:53;;;;;;;5.75;3.13;;;;;;;;;;4999615;28;20470;-82
2024/01/21 07:50:18;;;;;;;4.63;2.83;;;;;;;;;;5002785;28;20038;-84
2024/01/21 07:52:44;;;;;;;6.20;3.95;;;;;;;;;;5019342;28;20394;-82
2024/01/21 07:55:10;;;;;;;6.15;3.30;;;;;;;;;;4997079;28;20041;-81
2024/01/21 07:57:36;;;;;;;4.47;3.10;;;;;;;;;;5000418;28;20045;-81
2024/01/21 08:00:03;;;;;;;4.15;1.90;;;;;;;;;;4998872;28;20041;-82
2024/01/21 08:02:29;;;;;;;4.72;2.03;;;;;;;;;;5014052;28;20067;-81
2024/01/21 08:04:56;;;;;;;6.70;3.20;;;;;;;;;;5004189;28;20093;-81
2024/01/21 08:07:22;;;;;;;6.25;3.67;;;;;;;;;;5020824;28;20034;-81
2024/01/21 08:09:48;;;;;;;4.32;2.38;;;;;;;;;;5012228;28;20069;-83
2024/01/21 08:12:13;;;;;;;5.07;2.75;;;;;;;;;;5003085;28;20513;-81
2024/01/21 08:14:39;;;;;;;6.30;3.88;;;;;;;;;;5025160;28;20034;-81
2024/01/21 08:17:05;;;;;;;4.43;2.33;;;;;;;;;;4982859;28;20053;-83
2024/01/21 08:19:36;;;;;;;6.35;3.63;;;;;;;;;;4997359;28;20050;-81
2024/01/21 08:22:02;;;;;;;6.55;3.63;;;;;;;;;;5009531;28;20049;-81
2024/01/21 08:24:28;;;;;;;4.15;2.58;;;;;;;;;;4998034;28;20030;-81
2024/01/21 08:26:54;;;;;;;5.07;3.40;;;;;;;;;;5011912;28;20124;-81
2024/01/21 08:29:20;;;;;;;7.38;4.07;;;;;;;;;;5004417;28;20034;-81
2024/01/21 08:31:47;;;;;;;5.07;2.78;;;;;;;;;;4969327;28;20480;-82
2024/01/21 08:34:13;;;;;;;5.60;3.58;;;;;;;;;;4986494;28;20088;-83
2024/01/21 08:36:39;;;;;;;5.25;2.83;;;;;;;;;;4992231;28;20145;-84
2024/01/21 08:39:05;;;;;;;4.20;2.45;;;;;;;;;;4981216;28;20080;-83
2024/01/21 08:41:35;;;;;;;5.93;3.03;;;;;;;;;;5011477;28;20037;-83
2024/01/21 08:44:01;;;;;;;3.67;2.53;;;;;;;;;;4994399;28;20046;-83
2024/01/21 08:46:27;;;;;;;6.32;3.30;;;;;;;;;;5014394;28;20130;-83
2024/01/21 08:48:53;;;;;;;5.78;3.03;;;;;;;;;;5009824;28;20033;-83
2024/01/21 08:51:19;;;;;;;6.15;3.80;;;;;;;;;;5002956;28;20132;-84
2024/01/21 08:53:45;;;;;;;5.53;3.38;;;;;;;;;;4999526;28;20045;-80
2024/01/21 08:56:11;;;;;;;6.82;3.38;;;;;;;;;;5024122;28;20030;-80
2024/01/21 08:58:37;;;;;;;4.85;3.65;;;;;;;;;;5004555;28;20532;-80
2024/01/21 09:01:03;;;;;;;5.63;2.60;;;;;;;;;;5025979;28;20516;-82
2024/01/21 09:03:30;;;;;;;4.80;3.30;;;;;;;;;;5024903;28;20439;-80
2024/01/21 09:05:56;;;;;;;4.25;2.40;;;;;;;;;;5005428;28;20709;-80
2024/01/21 09:08:22;;;;;;;5.53;3.55;;;;;;;;;;5006211;28;20042;-80
2024/01/21 09:10:48;;;;;;;5.25;3.10;;;;;;;;;;5007038;28;20049;-80
2024/01/21 09:13:14;;;;;;;5.15;3.60;;;;;;;;;;5019280;28;20049;-80
2024/01/21 09:15:41;;;;;;;5.15;2.65;;;;;;;;;;5001168;28;20054;-81
2024/01/21 09:18:07;;;;;;;2.45;1.70;;;;;;;;;;5024203;28;20038;-80
2024/01/21 09:20:33;;;;;;;4.72;2.78;;;;;;;;;;5007529;28;20041;-80
2024/01/21 09:22:59;;;;;;;5.38;3.25;;;;;;;;;;4984952;28;20030;-81
2024/01/21 09:25:25;;;;;;;3.97;2.47;;;;;;;;;;5026710;28;20041;-80
2024/01/21 09:27:51;;;;;;;3.58;2.38;;;;;;;;;;5024212;28;20503;-81
2024/01/21 09:30:17;;;;;;;5.50;2.58;;;;;;;;;;5025088;28;20034;-81
2024/01/21 09:32:43;;;;;;;5.10;3.15;;;;;;;;;;5023476;28;20042;-81
2024/01/21 09:35:09;;;;;;;5.18;2.75;;;;;;;;;;5019665;28;20100;-80
2024/01/21 09:37:35;;;;;;;6.53;3.63;;;;;;;;;;5023798;28;20033;-80
2024/01/21 09:40:01;;;;;;;6.65;3.55;;;;;;;;;;5028793;28;20034;-80
2024/01/21 09:42:27;;;;;;;4.82;3.60;;;;;;;;;;5004343;28;20049;-80
2024/01/21 09:44:53;;;;;;;7.63;3.05;;;;;;;;;;5019040;28;20045;-81
2024/01/21 09:47:19;;;;;;;4.40;3.40;;;;;;;;;;5027327;28;20484;-80
2024/01/21 09:49:46;;;;;;;6.10;3.55;;;;;;;;;;5023857;28;20038;-81
2024/01/21 09:52:12;;;;;;;5.50;3.33;;;;;;;;;;5023857;28;20049;-81
2024/01/21 09:54:38;;;;;;;4.82;2.78;;;;;;;;;;5023660;28;20093;-82
2024/01/21 09:57:06;;;;;;;5.32;3.42;;;;;;;;;;5024683;28;20034;-81
2024/01/21 09:59:32;;;;;;;3.83;2.30;;;;;;;;;;5025745;28;20081;-81
2024/01/21 10:01:58;;;;;;;5.85;3.47;;;;;;;;;;5025336;28;20065;-81
2024/01/21 10:04:24;;;;;;;4.20;2.65;;;;;;;;;;5022451;28;20041;-81
2024/01/21 10:06:51;;;;;;;3.35;1.60;;;;;;;;;;5029812;28;20065;-81
2024/01/21 10:09:19;;;;;;;4.72;3.15;;;;;;;;;;5004994;28;20408;-81
2024/01/21 10:11:54;;;;;;;5.03;3.35;;;;;;;;;;5026926;28;20587;-81
2024/01/21 10:14:21;;;;;;;5.85;3.80;;;;;;;;;;5022018;28;20183;-81
2024/01/21 10:16:47;;;;;;;3.20;2.10;;;;;;;;;;5023150;28;20042;-82
2024/01/21 10:19:14;;;;;;;6.13;3.65;;;;;;;;;;4998139;28;20505;-81
2024/01/21 10:21:40;;;;;;;6.80;3.10;;;;;;;;;;5020262;28;20045;-81
2024/01/21 10:24:08;;;;;;;4.90;3.53;;;;;;;;;;5013627;28;21000;-83
2024/01/21 10:26:34;;;;;;;2.58;1.55;;;;;;;;;;4990496;28;20489;-83
2024/01/21 10:29:01;;;;;;;5.78;3.10;;;;;;;;;;4987251;28;20038;-82
2024/01/21 10:31:27;;;;;;;6.60;3.78;;;;;;;;;;5017906;28;20034;-84
2024/01/21 10:33:53;;;;;;;8.23;4.07;;;;;;;;;;5009282;28;20045;-83
2024/01/21 10:36:20;;;;;;;5.50;3.17;;;;;;;;;;4999118;28;20057;-83
2024/01/21 10:38:49;;;;;;;5.78;3.83;;;;;;;;;;5013862;28;20394;-82
2024/01/21 10:41:21;;;;;;;6.03;3.35;;;;;;;;;;5011951;28;20037;-82
2024/01/21 10:43:48;;;;;;;5.68;3.60;;;;;;;;;;5025986;28;20042;-83
2024/01/21 10:46:14;;;;;;;6.18;3.50;;;;;;;;;;5021652;28;20061;-82
2024/01/21 10:48:41;;;;;;;3.80;2.70;;;;;;;;;;5012475;28;20038;-82
2024/01/21 10:51:08;;;;;;;4.28;3.25;;;;;;;;;;5002709;28;20042;-82
2024/01/21 10:53:34;;;;;;;6.13;3.72;;;;;;;;;;5019509;28;20041;-83
2024/01/21 10:56:01;;;;;;;4.50;2.60;;;;;;;;;;5008339;28;20390;-82
2024/01/21 10:58:27;;;;;;;5.30;3.17;;;;;;;;;;5024173;28;20039;-83
2024/01/21 11:01:00;;;;;;;3.67;2.15;;;;;;;;;;5022306;28;20053;-83
2024/01/21 11:03:29;;;;;;;5.57;3.67;;;;;;;;;;5023287;28;20042;-83
2024/01/21 11:06:03;;;;;;;4.82;2.92;;;;;;;;;;5006889;28;20050;-82
2024/01/21 11:08:29;;;;;;;5.07;2.40;;;;;;;;;;5023258;28;20037;-83
2024/01/21 11:11:15;;;;;;;4.22;2.30;;;;;;;;;;4992280;28;20042;-83
2024/01/21 11:13:51;;;;;;;2.80;2.47;;;;;;;;;;5008376;28;20499;-83
2024/01/21 11:16:26;;;;;;;5.28;3.65;;;;;;;;;;5018891;28;20041;-83
2024/01/21 11:19:14;;;;;;;5.85;2.97;;;;;;;;;;5021061;28;20060;-83
2024/01/21 11:21:43;;;;;;;4.50;3.78;;;;;;;;;;5022102;28;20087;-83
2024/01/21 11:24:12;;;;;;;7.20;4.00;;;;;;;;;;5002766;28;20051;-83
2024/01/21 11:26:41;;;;;;;6.07;2.67;;;;;;;;;;4993005;28;20060;-83
2024/01/21 11:29:24;;;;;;;6.20;3.95;;;;;;;;;;4999833;28;20042;-83
2024/01/21 11:31:50;;;;;;;6.03;3.45;;;;;;;;;;5002819;28;20041;-84
2024/01/21 11:34:17;;;;;;;6.85;4.07;;;;;;;;;;4992618;28;20069;-83
2024/01/21 11:36:43;;;;;;;8.40;3.63;;;;;;;;;;4993726;28;20064;-83
2024/01/21 11:39:10;;;;;;;8.95;4.38;;;;;;;;;;5016052;28;20120;-83
2024/01/21 11:41:41;;;;;;;4.60;3.13;;;;;;;;;;5010542;28;20476;-85
2024/01/21 11:44:15;;;;;;;7.43;4.05;;;;;;;;;;5005269;28;20049;-84
2024/01/21 11:46:42;;;;;;;7.57;4.38;;;;;;;;;;5013031;28;20042;-81
2024/01/21 11:49:11;;;;;;;4.85;3.13;;;;;;;;;;5003468;28;20053;-82
2024/01/21 11:51:38;;;;;;;6.05;4.03;;;;;;;;;;4996630;28;20048;-82
2024/01/21 11:54:05;;;;;;;5.05;3.40;;;;;;;;;;5000543;28;20068;-82
2024/01/21 11:56:31;;;;;;;5.65;4.20;;;;;;;;;;4991545;28;20038;-82
2024/01/21 11:59:00;;;;;;;6.65;2.83;;;;;;;;;;4990124;28;20053;-83
2024/01/21 12:01:27;;;;;;;6.38;4.18;;;;;;;;;;4977413;28;20046;-83
2024/01/21 12:03:56;;;;;;;7.00;4.00;;;;;;;;;;4989678;28;20047;-83
2024/01/21 12:06:24;;;;;;;7.10;4.32;;;;;;;;;;5011063;28;20092;-83
2024/01/21 12:08:50;;;;;;;4.55;3.08;;;;;;;;;;4999140;28;20080;-83
2024/01/21 12:11:16;;;;;;;3.28;1.95;;;;;;;;;;5006586;28;20046;-83
2024/01/21 12:13:45;;;;;;;7.30;4.25;;;;;;;;;;4999795;28;20046;-83
2024/01/21 12:16:12;;;;;;;5.30;3.85;;;;;;;;;;5031495;28;20037;-83
2024/01/21 12:18:42;;;;;;;9.57;5.00;;;;;;;;;;4997653;28;20076;-83
2024/01/21 12:21:08;;;;;;;8.02;4.72;;;;;;;;;;5013466;28;20063;-82
2024/01/21 12:23:35;;;;;;;5.95;3.25;;;;;;;;;;5009751;28;20155;-83
2024/01/21 12:26:02;;;;;;;6.43;4.40;;;;;;;;;;5023043;28;20084;-83
2024/01/21 12:28:29;;;;;;;8.00;5.00;;;;;;;;;;5013467;28;20137;-85
2024/01/21 12:30:55;;;;;;;7.20;3.75;;;;;;;;;;5009309;28;20065;-82
2024/01/21 12:33:21;;;;;;;5.65;3.40;;;;;;;;;;5021602;28;20496;-83
2024/01/21 12:35:47;;;;;;;4.80;3.42;;;;;;;;;;5032206;28;20061;-82
2024/01/21 12:38:15;;;;;;;8.68;4.43;;;;;;;;;;5029952;28;20061;-82
2024/01/21 13:08:40;;;;;;;7.32;4.20;;;;;;;;;;5106755;27;20392;-85
2024/01/21 13:11:06;;;;;;;9.23;4.85;;;;;;;;;;5105728;28;20756;-85
2024/01/21 13:13:32;;;;;;;6.93;5.03;;;;;;;;;;5111341;28;20402;-83
2024/01/21 13:16:00;;;;;;;8.00;4.65;;;;;;;;;;5110488;28;20122;-83
2024/01/21 13:18:27;;;;;;;12.88;4.80;;;;;;;;;;5114111;28;20046;-84
2024/01/21 13:20:53;;;;;;;8.20;5.20;;;;;;;;;;5113571;28;20068;-82
2024/01/21 13:23:19;;;;;;;6.55;4.05;;;;;;;;;;5113180;28;20036;-82
2024/01/21 13:25:45;;;;;;;7.70;5.38;;;;;;;;;;5111255;28;20058;-83
2024/01/21 13:28:14;;;;;;;5.80;3.35;;;;;;;;;;5112028;28;20035;-86
2024/01/21 13:30:43;;;;;;;8.70;4.45;;;;;;;;;;5093117;28;20044;-83
2024/01/21 13:33:22;;;;;;;10.27;5.30;;;;;;;;;;5112768;28;20036;-84
2024/01/21 13:35:48;;;;;;;6.60;4.28;;;;;;;;;;5141181;27;20056;-85
2024/01/21 13:38:19;;;;;;;7.30;4.70;;;;;;;;;;5107872;28;20046;-84
2024/01/21 13:40:46;;;;;;;;;;;;;;;;;;5105579;28;20685;-83
2024/01/21 13:43:12;;;;;;;8.98;5.28;;;;;;;;;;5136188;27;19915;-85
2024/01/21 13:45:42;;;;;;;7.90;5.03;;;;;;;;;;5108264;28;20450;-84
2024/01/21 13:48:08;;;;;;;7.28;3.65;;;;;;;;;;5106492;28;20051;-83
2024/01/21 13:50:36;;;;;;;9.48;3.60;;;;;;;;;;5107966;28;20086;-84
2024/01/21 13:53:02;;;;;;;6.22;2.85;;;;;;;;;;5111171;28;20043;-84
2024/01/21 13:55:28;;;;;;;8.93;4.55;;;;;;;;;;5108434;28;20081;-83
2024/01/21 13:57:54;;;;;;;5.53;3.80;;;;;;;;;;5108694;28;20089;-83
2024/01/21 14:00:22;;;;;;;9.52;4.13;;;;;;;;;;5109099;28;20050;-82
2024/01/21 14:02:49;;;;;;;8.13;4.05;;;;;;;;;;5106951;28;20124;-85
2024/01/21 14:05:15;;;;;;;6.97;4.13;;;;;;;;;;5105709;28;20384;-85
2024/01/21 14:07:41;;;;;;;6.78;4.15;;;;;;;;;;5093676;28;20106;-84
2024/01/21 14:10:08;;;;;;;9.80;4.53;;;;;;;;;;5094484;28;20031;-84
2024/01/21 14:12:34;;;;;;;5.30;3.17;;;;;;;;;;5092842;28;20066;-87
2024/01/21 14:15:00;;;;;;;8.68;4.40;;;;;;;;;;5092816;28;20036;-86
2024/01/21 14:17:28;;;;;;;10.07;5.20;;;;;;;;;;5092501;28;20038;-85
2024/01/21 14:19:54;;;;;;;11.07;4.82;;;;;;;;;;5090833;28;20495;-86
2024/01/21 14:22:20;;;;;;;4.18;2.60;;;;;;;;;;5089841;28;22063;-84
2024/01/21 14:24:46;;;;;;;11.68;5.72;;;;;;;;;;5088680;28;20089;-85
2024/01/21 14:27:13;;;;;;;7.32;3.85;;;;;;;;;;5091624;28;20587;-84
2024/01/21 14:29:40;;;;;;;9.63;5.30;;;;;;;;;;5092156;28;20457;-85
2024/01/21 14:32:06;;;;;;;7.82;4.53;;;;;;;;;;5073975;28;20508;-87
2024/01/21 14:34:32;;;;;;;8.20;3.88;;;;;;;;;;5090128;28;20032;-86
2024/01/21 14:36:58;;;;;;;7.80;4.43;;;;;;;;;;5091851;28;20036;-88
2024/01/21 14:39:24;;;;;;;7.55;3.90;;;;;;;;;;5091805;28;20028;-86
2024/01/21 14:41:51;;;;;;;7.72;4.68;;;;;;;;;;5097646;28;20043;-87
2024/01/21 14:44:17;;;;;;;6.95;3.72;;;;;;;;;;5086097;28;20040;-86
2024/01/21 14:46:44;;;;;;;12.43;5.78;;;;;;;;;;5098649;28;20051;-86
2024/01/21 14:49:10;;;;;;;8.18;4.35;;;;;;;;;;5081963;28;20047;-87
2024/01/21 14:51:36;;;;;;;8.40;5.90;;;;;;;;;;5075365;28;20040;-85
2024/01/21 14:54:03;;;;;;;8.65;5.03;;;;;;;;;;5074782;28;20101;-86
2024/01/21 14:56:29;;;;;;;10.88;5.07;;;;;;;;;;5075748;28;20119;-85
2024/01/21 14:58:57;;;;;;;6.80;4.55;;;;;;;;;;5075190;28;20043;-86
2024/01/21 15:01:23;;;;;;;10.18;5.20;;;;;;;;;;5094015;28;20173;-86
2024/01/21 15:03:49;;;;;;;8.98;4.75;;;;;;;;;;5091744;28;20070;-86
2024/01/21 15:06:16;;;;;;;5.70;3.88;;;;;;;;;;5074479;28;20445;-85
2024/01/21 15:08:44;;;;;;;6.72;4.65;;;;;;;;;;5089879;28;20055;-85